sensor_id;sensor_type;location;lat;lon;timestamp;P1;durP1;ratioP1;P2;durP2;ratioP2
20065;SDS011;10193;48.884;9.182;2023-08-06T00:00:56;3.00;;;2.70;;
20065;SDS011;10193;48.884;9.182;2023-08-06T00:03:23;3.08;;;2.88;;
20065;SDS011;10193;48.884;9.182;2023-08-06T00:05:50;3.10;;;2.80;;
20065;SDS011;10193;48.884;9.182;2023-08-06T00:08:18;3.10;;;2.90;;
20065;SDS011;10193;48.884;9.182;2023-08-06T00:10:44;3.33;;;2.80;;
20065;SDS011;10193;48.884;9.182;2023-08-06T00:13:13;3.05;;;2.83;;
20065;SDS011;10193;48.884;9.182;2023-08-06T00:15:40;3.03;;;2.83;;
20065;SDS011;10193;48.884;9.182;2023-08-06T00:18:07;3.08;;;2.88;;
20065;SDS011;10193;48.884;9.182;2023-08-06T00:20:33;3.15;;;2.95;;
20065;SDS011;10193;48.884;9.182;2023-08-06T00:23:00;2.83;;;2.70;;
20065;SDS011;10193;48.884;9.182;2023-08-06T00:25:28;3.17;;;2.95;;
20065;SDS011;10193;48.884;9.182;2023-08-06T00:27:55;3.50;;;2.97;;
20065;SDS011;10193;48.884;9.182;2023-08-06T00:30:21;4.07;;;3.70;;
20065;SDS011;10193;48.884;9.182;2023-08-06T00:32:48;3.30;;;3.10;;
20065;SDS011;10193;48.884;9.182;2023-08-06T00:35:15;3.10;;;2.90;;
20065;SDS011;10193;48.884;9.182;2023-08-06T00:37:41;3.38;;;3.13;;
20065;SDS011;10193;48.884;9.182;2023-08-06T00:40:08;5.93;;;3.50;;
20065;SDS011;10193;48.884;9.182;2023-08-06T00:42:36;3.55;;;3.25;;
20065;SDS011;10193;48.884;9.182;2023-08-06T00:45:03;3.65;;;3.38;;
20065;SDS011;10193;48.884;9.182;2023-08-06T00:47:30;3.60;;;3.30;;
20065;SDS011;10193;48.884;9.182;2023-08-06T00:49:57;3.97;;;3.60;;
20065;SDS011;10193;48.884;9.182;2023-08-06T00:52:24;3.97;;;3.67;;
20065;SDS011;10193;48.884;9.182;2023-08-06T00:54:51;3.72;;;3.47;;
20065;SDS011;10193;48.884;9.182;2023-08-06T00:57:18;3.92;;;3.63;;
20065;SDS011;10193;48.884;9.182;2023-08-06T00:59:47;3.78;;;3.47;;
20065;SDS011;10193;48.884;9.182;2023-08-06T01:02:14;3.95;;;3.65;;
20065;SDS011;10193;48.884;9.182;2023-08-06T01:04:40;3.42;;;3.22;;
20065;SDS011;10193;48.884;9.182;2023-08-06T01:07:09;3.60;;;3.30;;
20065;SDS011;10193;48.884;9.182;2023-08-06T01:09:50;3.85;;;3.55;;
20065;SDS011;10193;48.884;9.182;2023-08-06T01:12:25;3.72;;;3.47;;
20065;SDS011;10193;48.884;9.182;2023-08-06T01:15:06;3.80;;;3.40;;
20065;SDS011;10193;48.884;9.182;2023-08-06T01:17:37;3.25;;;3.05;;
20065;SDS011;10193;48.884;9.182;2023-08-06T01:20:05;3.70;;;3.40;;
20065;SDS011;10193;48.884;9.182;2023-08-06T01:22:34;3.50;;;3.30;;
20065;SDS011;10193;48.884;9.182;2023-08-06T01:25:00;3.65;;;3.35;;
20065;SDS011;10193;48.884;9.182;2023-08-06T01:27:28;3.55;;;3.25;;
20065;SDS011;10193;48.884;9.182;2023-08-06T01:30:01;3.38;;;3.08;;
20065;SDS011;10193;48.884;9.182;2023-08-06T01:32:31;3.67;;;3.40;;
20065;SDS011;10193;48.884;9.182;2023-08-06T01:35:00;3.47;;;3.28;;
20065;SDS011;10193;48.884;9.182;2023-08-06T01:37:28;3.58;;;3.28;;
20065;SDS011;10193;48.884;9.182;2023-08-06T01:39:56;3.72;;;3.45;;
20065;SDS011;10193;48.884;9.182;2023-08-06T01:42:23;4.60;;;4.20;;
20065;SDS011;10193;48.884;9.182;2023-08-06T01:44:50;4.18;;;3.85;;
20065;SDS011;10193;48.884;9.182;2023-08-06T01:47:17;4.05;;;3.75;;
20065;SDS011;10193;48.884;9.182;2023-08-06T01:49:43;4.18;;;3.88;;
20065;SDS011;10193;48.884;9.182;2023-08-06T01:52:10;4.45;;;4.15;;
20065;SDS011;10193;48.884;9.182;2023-08-06T01:54:37;4.43;;;4.03;;
20065;SDS011;10193;48.884;9.182;2023-08-06T01:57:05;4.40;;;4.10;;
20065;SDS011;10193;48.884;9.182;2023-08-06T01:59:32;4.30;;;4.00;;
20065;SDS011;10193;48.884;9.182;2023-08-06T02:01:58;4.00;;;3.70;;
20065;SDS011;10193;48.884;9.182;2023-08-06T02:04:25;3.53;;;3.30;;
20065;SDS011;10193;48.884;9.182;2023-08-06T02:06:51;2.70;;;2.50;;
20065;SDS011;10193;48.884;9.182;2023-08-06T02:09:18;2.60;;;2.40;;
20065;SDS011;10193;48.884;9.182;2023-08-06T02:11:45;2.35;;;2.25;;
20065;SDS011;10193;48.884;9.182;2023-08-06T02:14:13;2.92;;;2.40;;
20065;SDS011;10193;48.884;9.182;2023-08-06T02:16:39;2.35;;;2.25;;
20065;SDS011;10193;48.884;9.182;2023-08-06T02:19:06;1.83;;;1.73;;
20065;SDS011;10193;48.884;9.182;2023-08-06T02:21:33;2.20;;;2.10;;
20065;SDS011;10193;48.884;9.182;2023-08-06T02:23:59;1.92;;;1.83;;
20065;SDS011;10193;48.884;9.182;2023-08-06T02:26:26;2.15;;;2.03;;
20065;SDS011;10193;48.884;9.182;2023-08-06T02:28:52;2.40;;;1.98;;
20065;SDS011;10193;48.884;9.182;2023-08-06T02:31:20;2.58;;;2.17;;
20065;SDS011;10193;48.884;9.182;2023-08-06T02:33:47;2.20;;;2.10;;
20065;SDS011;10193;48.884;9.182;2023-08-06T02:36:14;1.73;;;1.63;;
20065;SDS011;10193;48.884;9.182;2023-08-06T02:38:40;2.10;;;2.00;;
20065;SDS011;10193;48.884;9.182;2023-08-06T02:41:07;2.67;;;1.80;;
20065;SDS011;10193;48.884;9.182;2023-08-06T02:43:34;2.10;;;2.00;;
20065;SDS011;10193;48.884;9.182;2023-08-06T02:46:00;2.13;;;2.00;;
20065;SDS011;10193;48.884;9.182;2023-08-06T02:48:28;2.00;;;1.90;;
20065;SDS011;10193;48.884;9.182;2023-08-06T02:50:56;2.03;;;1.90;;
20065;SDS011;10193;48.884;9.182;2023-08-06T02:53:24;1.75;;;1.65;;
20065;SDS011;10193;48.884;9.182;2023-08-06T02:55:51;2.17;;;2.08;;
20065;SDS011;10193;48.884;9.182;2023-08-06T02:58:17;2.15;;;2.03;;
20065;SDS011;10193;48.884;9.182;2023-08-06T03:00:47;2.20;;;2.10;;
20065;SDS011;10193;48.884;9.182;2023-08-06T03:03:25;2.15;;;1.98;;
20065;SDS011;10193;48.884;9.182;2023-08-06T03:05:53;2.50;;;2.30;;
20065;SDS011;10193;48.884;9.182;2023-08-06T03:08:20;2.15;;;2.00;;
20065;SDS011;10193;48.884;9.182;2023-08-06T03:10:47;2.00;;;1.90;;
20065;SDS011;10193;48.884;9.182;2023-08-06T03:13:14;2.05;;;1.95;;
20065;SDS011;10193;48.884;9.182;2023-08-06T03:15:40;1.95;;;1.85;;
20065;SDS011;10193;48.884;9.182;2023-08-06T03:18:07;2.58;;;2.00;;
20065;SDS011;10193;48.884;9.182;2023-08-06T03:20:34;2.30;;;2.20;;
20065;SDS011;10193;48.884;9.182;2023-08-06T03:23:02;2.28;;;2.13;;
20065;SDS011;10193;48.884;9.182;2023-08-06T03:25:28;2.35;;;2.10;;
20065;SDS011;10193;48.884;9.182;2023-08-06T03:27:55;2.47;;;2.30;;
20065;SDS011;10193;48.884;9.182;2023-08-06T03:30:22;2.70;;;2.50;;
20065;SDS011;10193;48.884;9.182;2023-08-06T03:32:48;2.65;;;2.50;;
20065;SDS011;10193;48.884;9.182;2023-08-06T03:35:15;2.60;;;2.40;;
20065;SDS011;10193;48.884;9.182;2023-08-06T03:37:42;2.80;;;2.60;;
20065;SDS011;10193;48.884;9.182;2023-08-06T03:40:10;2.67;;;2.47;;
20065;SDS011;10193;48.884;9.182;2023-08-06T03:42:37;2.40;;;2.22;;
20065;SDS011;10193;48.884;9.182;2023-08-06T03:45:04;2.45;;;2.25;;
20065;SDS011;10193;48.884;9.182;2023-08-06T03:47:31;2.70;;;2.50;;
20065;SDS011;10193;48.884;9.182;2023-08-06T03:49:58;2.47;;;2.38;;
20065;SDS011;10193;48.884;9.182;2023-08-06T03:52:25;3.03;;;2.70;;
20065;SDS011;10193;48.884;9.182;2023-08-06T03:54:51;2.67;;;2.50;;
20065;SDS011;10193;48.884;9.182;2023-08-06T03:57:19;2.63;;;2.42;;
20065;SDS011;10193;48.884;9.182;2023-08-06T03:59:46;3.80;;;2.58;;
20065;SDS011;10193;48.884;9.182;2023-08-06T04:02:12;2.55;;;2.35;;
20065;SDS011;10193;48.884;9.182;2023-08-06T04:04:39;3.97;;;2.60;;
20065;SDS011;10193;48.884;9.182;2023-08-06T04:07:06;2.55;;;2.35;;
20065;SDS011;10193;48.884;9.182;2023-08-06T04:09:32;2.60;;;2.40;;
20065;SDS011;10193;48.884;9.182;2023-08-06T04:11:59;2.35;;;2.20;;
20065;SDS011;10193;48.884;9.182;2023-08-06T04:14:28;2.30;;;2.10;;
20065;SDS011;10193;48.884;9.182;2023-08-06T04:16:54;3.33;;;2.30;;
20065;SDS011;10193;48.884;9.182;2023-08-06T04:19:21;2.42;;;2.20;;
20065;SDS011;10193;48.884;9.182;2023-08-06T04:21:47;2.55;;;2.15;;
20065;SDS011;10193;48.884;9.182;2023-08-06T04:24:14;2.25;;;2.05;;
20065;SDS011;10193;48.884;9.182;2023-08-06T04:26:41;2.00;;;1.90;;
20065;SDS011;10193;48.884;9.182;2023-08-06T04:29:07;1.75;;;1.65;;
20065;SDS011;10193;48.884;9.182;2023-08-06T04:31:35;1.95;;;1.85;;
20065;SDS011;10193;48.884;9.182;2023-08-06T04:34:02;3.47;;;2.20;;
20065;SDS011;10193;48.884;9.182;2023-08-06T04:36:28;2.85;;;1.98;;
20065;SDS011;10193;48.884;9.182;2023-08-06T04:38:55;2.08;;;1.90;;
20065;SDS011;10193;48.884;9.182;2023-08-06T04:41:22;1.98;;;1.80;;
20065;SDS011;10193;48.884;9.182;2023-08-06T04:43:48;1.65;;;1.55;;
20065;SDS011;10193;48.884;9.182;2023-08-06T04:46:15;1.80;;;1.70;;
20065;SDS011;10193;48.884;9.182;2023-08-06T04:48:43;1.55;;;1.45;;
20065;SDS011;10193;48.884;9.182;2023-08-06T04:51:10;1.70;;;1.60;;
20065;SDS011;10193;48.884;9.182;2023-08-06T04:53:36;1.88;;;1.75;;
20065;SDS011;10193;48.884;9.182;2023-08-06T04:56:03;1.73;;;1.65;;
20065;SDS011;10193;48.884;9.182;2023-08-06T04:58:30;1.60;;;1.50;;
20065;SDS011;10193;48.884;9.182;2023-08-06T05:00:56;1.75;;;1.65;;
20065;SDS011;10193;48.884;9.182;2023-08-06T05:03:23;2.05;;;1.83;;
20065;SDS011;10193;48.884;9.182;2023-08-06T05:05:51;1.88;;;1.70;;
20065;SDS011;10193;48.884;9.182;2023-08-06T05:08:18;1.38;;;1.27;;
20065;SDS011;10193;48.884;9.182;2023-08-06T05:10:44;1.90;;;1.80;;
20065;SDS011;10193;48.884;9.182;2023-08-06T05:13:11;1.52;;;1.42;;
20065;SDS011;10193;48.884;9.182;2023-08-06T05:15:38;1.63;;;1.50;;
20065;SDS011;10193;48.884;9.182;2023-08-06T05:18:07;1.50;;;1.50;;
20065;SDS011;10193;48.884;9.182;2023-08-06T05:20:35;1.60;;;1.50;;
20065;SDS011;10193;48.884;9.182;2023-08-06T05:23:04;1.67;;;1.58;;
20065;SDS011;10193;48.884;9.182;2023-08-06T05:25:31;1.88;;;1.70;;
20065;SDS011;10193;48.884;9.182;2023-08-06T05:27:57;1.85;;;1.75;;
20065;SDS011;10193;48.884;9.182;2023-08-06T05:30:24;1.73;;;1.63;;
20065;SDS011;10193;48.884;9.182;2023-08-06T05:32:51;1.77;;;1.60;;
20065;SDS011;10193;48.884;9.182;2023-08-06T05:35:18;1.60;;;1.50;;
20065;SDS011;10193;48.884;9.182;2023-08-06T05:37:45;1.98;;;1.63;;
20065;SDS011;10193;48.884;9.182;2023-08-06T05:40:13;2.08;;;1.50;;
20065;SDS011;10193;48.884;9.182;2023-08-06T05:42:40;1.55;;;1.42;;
20065;SDS011;10193;48.884;9.182;2023-08-06T05:45:07;1.65;;;1.23;;
20065;SDS011;10193;48.884;9.182;2023-08-06T05:47:35;1.60;;;1.50;;
20065;SDS011;10193;48.884;9.182;2023-08-06T05:50:01;1.35;;;1.25;;
20065;SDS011;10193;48.884;9.182;2023-08-06T05:52:28;1.52;;;1.30;;
20065;SDS011;10193;48.884;9.182;2023-08-06T05:54:55;1.20;;;1.20;;
20065;SDS011;10193;48.884;9.182;2023-08-06T05:57:23;1.77;;;1.55;;
20065;SDS011;10193;48.884;9.182;2023-08-06T05:59:49;1.42;;;1.33;;
20065;SDS011;10193;48.884;9.182;2023-08-06T06:02:16;1.23;;;1.13;;
20065;SDS011;10193;48.884;9.182;2023-08-06T06:04:44;1.50;;;1.40;;
20065;SDS011;10193;48.884;9.182;2023-08-06T06:07:10;1.55;;;1.45;;
20065;SDS011;10193;48.884;9.182;2023-08-06T06:09:37;2.33;;;1.27;;
20065;SDS011;10193;48.884;9.182;2023-08-06T06:12:05;1.80;;;1.33;;
20065;SDS011;10193;48.884;9.182;2023-08-06T06:14:33;2.35;;;1.50;;
20065;SDS011;10193;48.884;9.182;2023-08-06T06:17:00;1.60;;;1.50;;
20065;SDS011;10193;48.884;9.182;2023-08-06T06:19:26;1.65;;;1.52;;
20065;SDS011;10193;48.884;9.182;2023-08-06T06:21:53;1.00;;;1.00;;
20065;SDS011;10193;48.884;9.182;2023-08-06T06:24:22;1.73;;;1.00;;
20065;SDS011;10193;48.884;9.182;2023-08-06T06:26:49;0.70;;;0.70;;
20065;SDS011;10193;48.884;9.182;2023-08-06T06:29:15;0.88;;;0.80;;
20065;SDS011;10193;48.884;9.182;2023-08-06T06:31:43;0.75;;;0.75;;
20065;SDS011;10193;48.884;9.182;2023-08-06T06:34:10;0.60;;;0.60;;
20065;SDS011;10193;48.884;9.182;2023-08-06T06:36:37;0.57;;;0.57;;
20065;SDS011;10193;48.884;9.182;2023-08-06T06:39:03;0.73;;;0.60;;
20065;SDS011;10193;48.884;9.182;2023-08-06T06:41:30;0.82;;;0.70;;
20065;SDS011;10193;48.884;9.182;2023-08-06T06:43:58;0.50;;;0.50;;
20065;SDS011;10193;48.884;9.182;2023-08-06T06:46:24;1.17;;;0.60;;
20065;SDS011;10193;48.884;9.182;2023-08-06T06:48:52;1.52;;;0.45;;
20065;SDS011;10193;48.884;9.182;2023-08-06T06:51:19;0.47;;;0.47;;
20065;SDS011;10193;48.884;9.182;2023-08-06T06:53:46;0.57;;;0.40;;
20065;SDS011;10193;48.884;9.182;2023-08-06T06:56:12;0.80;;;0.60;;
20065;SDS011;10193;48.884;9.182;2023-08-06T06:58:39;0.52;;;0.50;;
20065;SDS011;10193;48.884;9.182;2023-08-06T07:01:06;0.40;;;0.40;;
20065;SDS011;10193;48.884;9.182;2023-08-06T07:03:32;0.40;;;0.40;;
20065;SDS011;10193;48.884;9.182;2023-08-06T07:06:00;0.52;;;0.40;;
20065;SDS011;10193;48.884;9.182;2023-08-06T07:08:27;0.40;;;0.40;;
20065;SDS011;10193;48.884;9.182;2023-08-06T07:10:59;0.30;;;0.30;;
20065;SDS011;10193;48.884;9.182;2023-08-06T07:13:27;0.43;;;0.43;;
20065;SDS011;10193;48.884;9.182;2023-08-06T07:15:54;0.55;;;0.38;;
20065;SDS011;10193;48.884;9.182;2023-08-06T07:18:21;0.30;;;0.30;;
20065;SDS011;10193;48.884;9.182;2023-08-06T07:20:48;1.17;;;0.60;;
20065;SDS011;10193;48.884;9.182;2023-08-06T07:23:16;0.90;;;0.70;;
20065;SDS011;10193;48.884;9.182;2023-08-06T07:25:43;0.40;;;0.40;;
20065;SDS011;10193;48.884;9.182;2023-08-06T07:28:09;0.75;;;0.45;;
20065;SDS011;10193;48.884;9.182;2023-08-06T07:30:38;0.20;;;0.20;;
20065;SDS011;10193;48.884;9.182;2023-08-06T07:33:04;0.38;;;0.38;;
20065;SDS011;10193;48.884;9.182;2023-08-06T07:35:31;0.40;;;0.30;;
20065;SDS011;10193;48.884;9.182;2023-08-06T07:37:58;0.20;;;0.20;;
20065;SDS011;10193;48.884;9.182;2023-08-06T07:40:26;0.60;;;0.30;;
20065;SDS011;10193;48.884;9.182;2023-08-06T07:42:53;0.30;;;0.30;;
20065;SDS011;10193;48.884;9.182;2023-08-06T07:45:20;0.30;;;0.30;;
20065;SDS011;10193;48.884;9.182;2023-08-06T07:47:47;0.40;;;0.30;;
20065;SDS011;10193;48.884;9.182;2023-08-06T07:50:14;0.30;;;0.30;;
20065;SDS011;10193;48.884;9.182;2023-08-06T07:52:40;0.30;;;0.30;;
20065;SDS011;10193;48.884;9.182;2023-08-06T07:55:07;0.63;;;0.30;;
20065;SDS011;10193;48.884;9.182;2023-08-06T07:57:35;0.30;;;0.30;;
20065;SDS011;10193;48.884;9.182;2023-08-06T08:00:03;0.50;;;0.50;;
20065;SDS011;10193;48.884;9.182;2023-08-06T08:02:31;0.75;;;0.40;;
20065;SDS011;10193;48.884;9.182;2023-08-06T08:04:57;0.65;;;0.22;;
20065;SDS011;10193;48.884;9.182;2023-08-06T08:07:24;0.50;;;0.28;;
20065;SDS011;10193;48.884;9.182;2023-08-06T08:09:53;0.38;;;0.38;;
20065;SDS011;10193;48.884;9.182;2023-08-06T08:12:20;0.30;;;0.30;;
20065;SDS011;10193;48.884;9.182;2023-08-06T08:14:48;0.50;;;0.22;;
20065;SDS011;10193;48.884;9.182;2023-08-06T08:17:14;1.55;;;0.30;;
20065;SDS011;10193;48.884;9.182;2023-08-06T08:19:41;0.20;;;0.20;;
20065;SDS011;10193;48.884;9.182;2023-08-06T08:22:07;0.50;;;0.30;;
20065;SDS011;10193;48.884;9.182;2023-08-06T08:24:34;0.13;;;0.13;;
20065;SDS011;10193;48.884;9.182;2023-08-06T08:27:01;0.28;;;0.10;;
20065;SDS011;10193;48.884;9.182;2023-08-06T08:29:27;0.10;;;0.10;;
20065;SDS011;10193;48.884;9.182;2023-08-06T08:31:55;0.57;;;0.20;;
20065;SDS011;10193;48.884;9.182;2023-08-06T08:34:22;0.65;;;0.22;;
20065;SDS011;10193;48.884;9.182;2023-08-06T08:36:49;0.20;;;0.10;;
20065;SDS011;10193;48.884;9.182;2023-08-06T08:39:15;0.10;;;0.10;;
20065;SDS011;10193;48.884;9.182;2023-08-06T08:41:42;0.20;;;0.20;;
20065;SDS011;10193;48.884;9.182;2023-08-06T08:44:09;0.25;;;0.25;;
20065;SDS011;10193;48.884;9.182;2023-08-06T08:46:37;0.17;;;0.17;;
20065;SDS011;10193;48.884;9.182;2023-08-06T08:49:07;0.20;;;0.20;;
20065;SDS011;10193;48.884;9.182;2023-08-06T08:51:34;0.10;;;0.10;;
20065;SDS011;10193;48.884;9.182;2023-08-06T08:54:02;0.20;;;0.20;;
20065;SDS011;10193;48.884;9.182;2023-08-06T08:56:29;0.10;;;0.10;;
20065;SDS011;10193;48.884;9.182;2023-08-06T08:58:56;0.75;;;0.20;;
20065;SDS011;10193;48.884;9.182;2023-08-06T09:01:23;0.10;;;0.10;;
20065;SDS011;10193;48.884;9.182;2023-08-06T09:03:50;0.13;;;0.10;;
20065;SDS011;10193;48.884;9.182;2023-08-06T09:06:20;1.42;;;0.30;;
20065;SDS011;10193;48.884;9.182;2023-08-06T09:08:51;0.20;;;0.20;;
20065;SDS011;10193;48.884;9.182;2023-08-06T09:11:22;0.20;;;0.20;;
20065;SDS011;10193;48.884;9.182;2023-08-06T09:13:49;0.13;;;0.13;;
20065;SDS011;10193;48.884;9.182;2023-08-06T09:16:16;0.10;;;0.10;;
20065;SDS011;10193;48.884;9.182;2023-08-06T09:18:42;0.10;;;0.10;;
20065;SDS011;10193;48.884;9.182;2023-08-06T09:21:13;0.15;;;0.10;;
20065;SDS011;10193;48.884;9.182;2023-08-06T09:23:42;0.13;;;0.10;;
20065;SDS011;10193;48.884;9.182;2023-08-06T09:26:10;0.10;;;0.10;;
20065;SDS011;10193;48.884;9.182;2023-08-06T09:28:38;0.10;;;0.10;;
20065;SDS011;10193;48.884;9.182;2023-08-06T09:31:07;0.10;;;0.10;;
20065;SDS011;10193;48.884;9.182;2023-08-06T09:33:35;0.10;;;0.10;;
20065;SDS011;10193;48.884;9.182;2023-08-06T09:36:07;0.10;;;0.10;;
20065;SDS011;10193;48.884;9.182;2023-08-06T09:38:37;0.13;;;0.13;;
20065;SDS011;10193;48.884;9.182;2023-08-06T09:41:06;0.10;;;0.10;;
20065;SDS011;10193;48.884;9.182;2023-08-06T09:43:39;0.10;;;0.10;;
20065;SDS011;10193;48.884;9.182;2023-08-06T09:46:10;0.45;;;0.20;;
20065;SDS011;10193;48.884;9.182;2023-08-06T09:48:38;0.10;;;0.10;;
20065;SDS011;10193;48.884;9.182;2023-08-06T09:51:06;0.13;;;0.13;;
20065;SDS011;10193;48.884;9.182;2023-08-06T09:53:34;0.00;;;0.00;;
20065;SDS011;10193;48.884;9.182;2023-08-06T09:56:03;0.20;;;0.20;;
20065;SDS011;10193;48.884;9.182;2023-08-06T09:58:31;0.10;;;0.10;;
20065;SDS011;10193;48.884;9.182;2023-08-06T10:00:58;0.10;;;0.10;;
20065;SDS011;10193;48.884;9.182;2023-08-06T10:03:26;0.73;;;0.20;;
20065;SDS011;10193;48.884;9.182;2023-08-06T10:05:55;0.15;;;0.15;;
20065;SDS011;10193;48.884;9.182;2023-08-06T10:08:22;0.25;;;0.20;;
20065;SDS011;10193;48.884;9.182;2023-08-06T10:10:49;0.15;;;0.10;;
20065;SDS011;10193;48.884;9.182;2023-08-06T10:13:16;0.10;;;0.10;;
20065;SDS011;10193;48.884;9.182;2023-08-06T10:15:46;0.10;;;0.10;;
20065;SDS011;10193;48.884;9.182;2023-08-06T10:18:13;0.10;;;0.10;;
20065;SDS011;10193;48.884;9.182;2023-08-06T10:20:46;0.10;;;0.10;;
20065;SDS011;10193;48.884;9.182;2023-08-06T10:23:12;0.15;;;0.15;;
20065;SDS011;10193;48.884;9.182;2023-08-06T10:25:40;0.17;;;0.17;;
20065;SDS011;10193;48.884;9.182;2023-08-06T10:28:07;0.28;;;0.20;;
20065;SDS011;10193;48.884;9.182;2023-08-06T10:30:41;0.10;;;0.10;;
20065;SDS011;10193;48.884;9.182;2023-08-06T10:33:11;0.40;;;0.40;;
20065;SDS011;10193;48.884;9.182;2023-08-06T10:35:38;0.10;;;0.10;;
20065;SDS011;10193;48.884;9.182;2023-08-06T10:38:09;0.15;;;0.15;;
20065;SDS011;10193;48.884;9.182;2023-08-06T10:40:37;0.43;;;0.10;;
20065;SDS011;10193;48.884;9.182;2023-08-06T10:43:06;0.10;;;0.10;;
20065;SDS011;10193;48.884;9.182;2023-08-06T10:45:35;0.10;;;0.10;;
20065;SDS011;10193;48.884;9.182;2023-08-06T10:48:03;0.10;;;0.10;;
20065;SDS011;10193;48.884;9.182;2023-08-06T10:50:31;0.17;;;0.17;;
20065;SDS011;10193;48.884;9.182;2023-08-06T10:53:00;0.28;;;0.10;;
20065;SDS011;10193;48.884;9.182;2023-08-06T10:55:30;0.10;;;0.10;;
20065;SDS011;10193;48.884;9.182;2023-08-06T10:57:57;0.47;;;0.20;;
20065;SDS011;10193;48.884;9.182;2023-08-06T11:00:24;0.10;;;0.10;;
20065;SDS011;10193;48.884;9.182;2023-08-06T11:02:51;0.28;;;0.28;;
20065;SDS011;10193;48.884;9.182;2023-08-06T11:05:18;0.65;;;0.20;;
20065;SDS011;10193;48.884;9.182;2023-08-06T11:07:46;0.30;;;0.30;;
20065;SDS011;10193;48.884;9.182;2023-08-06T11:10:14;0.35;;;0.35;;
20065;SDS011;10193;48.884;9.182;2023-08-06T11:12:41;0.40;;;0.40;;
20065;SDS011;10193;48.884;9.182;2023-08-06T11:15:08;0.40;;;0.40;;
20065;SDS011;10193;48.884;9.182;2023-08-06T11:17:34;0.30;;;0.30;;
20065;SDS011;10193;48.884;9.182;2023-08-06T11:20:02;0.40;;;0.40;;
20065;SDS011;10193;48.884;9.182;2023-08-06T11:22:29;0.40;;;0.40;;
20065;SDS011;10193;48.884;9.182;2023-08-06T11:24:58;0.40;;;0.40;;
20065;SDS011;10193;48.884;9.182;2023-08-06T11:27:26;0.40;;;0.40;;
20065;SDS011;10193;48.884;9.182;2023-08-06T11:29:53;0.50;;;0.50;;
20065;SDS011;10193;48.884;9.182;2023-08-06T11:32:20;0.75;;;0.70;;
20065;SDS011;10193;48.884;9.182;2023-08-06T11:34:46;0.60;;;0.60;;
20065;SDS011;10193;48.884;9.182;2023-08-06T11:37:13;0.60;;;0.60;;
20065;SDS011;10193;48.884;9.182;2023-08-06T11:39:44;0.93;;;0.70;;
20065;SDS011;10193;48.884;9.182;2023-08-06T11:42:15;0.80;;;0.80;;
20065;SDS011;10193;48.884;9.182;2023-08-06T11:44:41;1.00;;;0.90;;
20065;SDS011;10193;48.884;9.182;2023-08-06T11:47:11;0.70;;;0.70;;
20065;SDS011;10193;48.884;9.182;2023-08-06T11:49:40;0.77;;;0.77;;
20065;SDS011;10193;48.884;9.182;2023-08-06T11:52:10;1.25;;;1.13;;
20065;SDS011;10193;48.884;9.182;2023-08-06T11:54:39;1.00;;;1.00;;
20065;SDS011;10193;48.884;9.182;2023-08-06T11:57:06;1.40;;;1.00;;
20065;SDS011;10193;48.884;9.182;2023-08-06T11:59:34;1.63;;;0.90;;
20065;SDS011;10193;48.884;9.182;2023-08-06T12:02:03;1.48;;;1.15;;
20065;SDS011;10193;48.884;9.182;2023-08-06T12:04:31;2.15;;;1.10;;
20065;SDS011;10193;48.884;9.182;2023-08-06T12:07:04;0.82;;;0.82;;
20065;SDS011;10193;48.884;9.182;2023-08-06T12:09:32;1.20;;;1.10;;
20065;SDS011;10193;48.884;9.182;2023-08-06T12:12:01;1.15;;;1.13;;
20065;SDS011;10193;48.884;9.182;2023-08-06T12:14:28;1.00;;;1.00;;
20065;SDS011;10193;48.884;9.182;2023-08-06T12:16:56;2.90;;;1.40;;
20065;SDS011;10193;48.884;9.182;2023-08-06T12:19:22;1.25;;;1.15;;
20065;SDS011;10193;48.884;9.182;2023-08-06T12:21:49;1.30;;;1.20;;
20065;SDS011;10193;48.884;9.182;2023-08-06T12:24:16;1.15;;;1.05;;
20065;SDS011;10193;48.884;9.182;2023-08-06T12:26:42;1.42;;;1.33;;
20065;SDS011;10193;48.884;9.182;2023-08-06T12:29:09;1.17;;;1.00;;
20065;SDS011;10193;48.884;9.182;2023-08-06T12:31:35;1.60;;;1.48;;
20065;SDS011;10193;48.884;9.182;2023-08-06T12:34:03;1.98;;;1.73;;
20065;SDS011;10193;48.884;9.182;2023-08-06T12:36:30;1.83;;;1.40;;
20065;SDS011;10193;48.884;9.182;2023-08-06T12:38:57;1.75;;;1.65;;
20065;SDS011;10193;48.884;9.182;2023-08-06T12:41:23;1.65;;;1.55;;
20065;SDS011;10193;48.884;9.182;2023-08-06T12:43:50;1.65;;;1.55;;
20065;SDS011;10193;48.884;9.182;2023-08-06T12:46:18;1.70;;;1.60;;
20065;SDS011;10193;48.884;9.182;2023-08-06T12:48:44;1.40;;;1.40;;
20065;SDS011;10193;48.884;9.182;2023-08-06T12:51:14;1.80;;;1.70;;
20065;SDS011;10193;48.884;9.182;2023-08-06T12:53:41;1.52;;;1.42;;
20065;SDS011;10193;48.884;9.182;2023-08-06T12:56:07;1.60;;;1.50;;
20065;SDS011;10193;48.884;9.182;2023-08-06T12:58:34;1.35;;;1.23;;
20065;SDS011;10193;48.884;9.182;2023-08-06T13:01:01;1.23;;;1.20;;
20065;SDS011;10193;48.884;9.182;2023-08-06T13:03:27;2.35;;;1.30;;
20065;SDS011;10193;48.884;9.182;2023-08-06T13:05:54;2.00;;;1.23;;
20065;SDS011;10193;48.884;9.182;2023-08-06T13:08:22;1.30;;;1.20;;
20065;SDS011;10193;48.884;9.182;2023-08-06T13:10:49;1.40;;;1.30;;
20065;SDS011;10193;48.884;9.182;2023-08-06T13:13:16;1.25;;;1.15;;
20065;SDS011;10193;48.884;9.182;2023-08-06T13:15:42;1.27;;;1.17;;
20065;SDS011;10193;48.884;9.182;2023-08-06T13:18:09;1.48;;;1.15;;
20065;SDS011;10193;48.884;9.182;2023-08-06T13:20:38;1.20;;;1.05;;
20065;SDS011;10193;48.884;9.182;2023-08-06T13:23:05;1.17;;;1.10;;
20065;SDS011;10193;48.884;9.182;2023-08-06T13:25:33;1.42;;;1.20;;
20065;SDS011;10193;48.884;9.182;2023-08-06T13:28:02;2.03;;;1.10;;
20065;SDS011;10193;48.884;9.182;2023-08-06T13:30:28;1.08;;;0.98;;
20065;SDS011;10193;48.884;9.182;2023-08-06T13:32:55;1.10;;;0.82;;
20065;SDS011;10193;48.884;9.182;2023-08-06T13:35:23;1.02;;;1.02;;
20065;SDS011;10193;48.884;9.182;2023-08-06T13:37:49;0.73;;;0.73;;
20065;SDS011;10193;48.884;9.182;2023-08-06T13:40:16;0.77;;;0.77;;
20065;SDS011;10193;48.884;9.182;2023-08-06T13:42:44;0.80;;;0.68;;
20065;SDS011;10193;48.884;9.182;2023-08-06T13:45:11;0.55;;;0.55;;
20065;SDS011;10193;48.884;9.182;2023-08-06T13:47:37;0.60;;;0.60;;
20065;SDS011;10193;48.884;9.182;2023-08-06T13:50:04;0.52;;;0.52;;
20065;SDS011;10193;48.884;9.182;2023-08-06T13:52:31;0.50;;;0.50;;
20065;SDS011;10193;48.884;9.182;2023-08-06T13:55:00;0.60;;;0.60;;
20065;SDS011;10193;48.884;9.182;2023-08-06T13:57:28;0.47;;;0.47;;
20065;SDS011;10193;48.884;9.182;2023-08-06T13:59:57;0.50;;;0.50;;
20065;SDS011;10193;48.884;9.182;2023-08-06T14:02:23;0.47;;;0.47;;
20065;SDS011;10193;48.884;9.182;2023-08-06T14:04:50;0.60;;;0.60;;
20065;SDS011;10193;48.884;9.182;2023-08-06T14:07:17;0.70;;;0.70;;
20065;SDS011;10193;48.884;9.182;2023-08-06T14:09:44;0.70;;;0.70;;
20065;SDS011;10193;48.884;9.182;2023-08-06T14:12:12;0.65;;;0.50;;
20065;SDS011;10193;48.884;9.182;2023-08-06T14:14:39;0.60;;;0.47;;
20065;SDS011;10193;48.884;9.182;2023-08-06T14:17:07;0.82;;;0.50;;
20065;SDS011;10193;48.884;9.182;2023-08-06T14:19:34;0.95;;;0.90;;
20065;SDS011;10193;48.884;9.182;2023-08-06T14:22:00;0.60;;;0.60;;
20065;SDS011;10193;48.884;9.182;2023-08-06T14:24:27;0.70;;;0.70;;
20065;SDS011;10193;48.884;9.182;2023-08-06T14:26:54;2.00;;;0.82;;
20065;SDS011;10193;48.884;9.182;2023-08-06T14:29:20;0.60;;;0.60;;
20065;SDS011;10193;48.884;9.182;2023-08-06T14:31:47;1.13;;;0.90;;
20065;SDS011;10193;48.884;9.182;2023-08-06T14:34:15;0.80;;;0.80;;
20065;SDS011;10193;48.884;9.182;2023-08-06T14:36:41;0.70;;;0.70;;
20065;SDS011;10193;48.884;9.182;2023-08-06T14:39:08;1.02;;;0.80;;
20065;SDS011;10193;48.884;9.182;2023-08-06T14:41:35;0.93;;;0.80;;
20065;SDS011;10193;48.884;9.182;2023-08-06T14:44:01;0.80;;;0.80;;
20065;SDS011;10193;48.884;9.182;2023-08-06T14:46:28;1.10;;;1.00;;
20065;SDS011;10193;48.884;9.182;2023-08-06T14:48:55;1.10;;;1.00;;